sensor_id;sensor_type;location;lat;lon;timestamp;P1;durP1;ratioP1;P2;durP2;ratioP2
7707;SDS011;3896;48.758;8.888;2023-04-15T00:01:29;4.23;;;1.50;;
7707;SDS011;3896;48.758;8.888;2023-04-15T00:03:58;5.13;;;2.33;;
7707;SDS011;3896;48.758;8.888;2023-04-15T00:06:23;2.57;;;1.90;;
7707;SDS011;3896;48.758;8.888;2023-04-15T00:08:49;3.90;;;1.80;;
7707;SDS011;3896;48.758;8.888;2023-04-15T00:11:15;2.20;;;1.60;;
7707;SDS011;3896;48.758;8.888;2023-04-15T00:13:41;3.03;;;1.70;;
7707;SDS011;3896;48.758;8.888;2023-04-15T00:16:08;3.20;;;1.80;;
7707;SDS011;3896;48.758;8.888;2023-04-15T00:18:34;3.13;;;1.80;;
7707;SDS011;3896;48.758;8.888;2023-04-15T00:21:01;3.63;;;2.13;;
7707;SDS011;3896;48.758;8.888;2023-04-15T00:23:27;3.40;;;2.33;;
7707;SDS011;3896;48.758;8.888;2023-04-15T00:25:53;2.43;;;2.00;;
7707;SDS011;3896;48.758;8.888;2023-04-15T00:28:19;2.47;;;1.80;;
7707;SDS011;3896;48.758;8.888;2023-04-15T00:30:44;3.93;;;2.40;;
7707;SDS011;3896;48.758;8.888;2023-04-15T00:33:11;3.93;;;2.33;;
7707;SDS011;3896;48.758;8.888;2023-04-15T00:35:37;3.20;;;1.90;;
7707;SDS011;3896;48.758;8.888;2023-04-15T00:38:03;4.00;;;2.20;;
7707;SDS011;3896;48.758;8.888;2023-04-15T00:40:30;2.27;;;2.07;;
7707;SDS011;3896;48.758;8.888;2023-04-15T00:42:55;2.67;;;2.17;;
7707;SDS011;3896;48.758;8.888;2023-04-15T00:45:21;4.10;;;2.23;;
7707;SDS011;3896;48.758;8.888;2023-04-15T00:47:47;3.63;;;2.80;;
7707;SDS011;3896;48.758;8.888;2023-04-15T00:50:13;2.77;;;2.20;;
7707;SDS011;3896;48.758;8.888;2023-04-15T00:52:38;3.97;;;2.40;;
7707;SDS011;3896;48.758;8.888;2023-04-15T00:55:05;2.90;;;2.07;;
7707;SDS011;3896;48.758;8.888;2023-04-15T00:57:31;4.37;;;2.20;;
7707;SDS011;3896;48.758;8.888;2023-04-15T00:59:57;3.37;;;2.30;;
7707;SDS011;3896;48.758;8.888;2023-04-15T01:02:24;3.07;;;2.70;;
7707;SDS011;3896;48.758;8.888;2023-04-15T01:04:49;2.53;;;2.27;;
7707;SDS011;3896;48.758;8.888;2023-04-15T01:07:15;2.50;;;2.30;;
7707;SDS011;3896;48.758;8.888;2023-04-15T01:09:41;3.93;;;2.60;;
7707;SDS011;3896;48.758;8.888;2023-04-15T01:12:07;4.50;;;2.47;;
7707;SDS011;3896;48.758;8.888;2023-04-15T01:14:35;3.13;;;2.47;;
7707;SDS011;3896;48.758;8.888;2023-04-15T01:17:01;2.63;;;2.13;;
7707;SDS011;3896;48.758;8.888;2023-04-15T01:19:27;6.90;;;2.67;;
7707;SDS011;3896;48.758;8.888;2023-04-15T01:21:53;4.20;;;2.97;;
7707;SDS011;3896;48.758;8.888;2023-04-15T01:24:19;3.43;;;3.03;;
7707;SDS011;3896;48.758;8.888;2023-04-15T01:26:45;3.40;;;2.07;;
7707;SDS011;3896;48.758;8.888;2023-04-15T01:29:11;6.43;;;2.10;;
7707;SDS011;3896;48.758;8.888;2023-04-15T01:31:37;3.03;;;2.50;;
7707;SDS011;3896;48.758;8.888;2023-04-15T01:34:03;2.30;;;2.10;;
7707;SDS011;3896;48.758;8.888;2023-04-15T01:36:28;4.93;;;2.40;;
7707;SDS011;3896;48.758;8.888;2023-04-15T01:38:54;3.57;;;2.23;;
7707;SDS011;3896;48.758;8.888;2023-04-15T01:41:27;6.67;;;2.17;;
7707;SDS011;3896;48.758;8.888;2023-04-15T01:43:53;2.17;;;1.87;;
7707;SDS011;3896;48.758;8.888;2023-04-15T01:46:19;3.23;;;2.10;;
7707;SDS011;3896;48.758;8.888;2023-04-15T01:48:45;4.43;;;2.60;;
7707;SDS011;3896;48.758;8.888;2023-04-15T01:51:11;2.50;;;2.30;;
7707;SDS011;3896;48.758;8.888;2023-04-15T01:53:36;2.17;;;1.93;;
7707;SDS011;3896;48.758;8.888;2023-04-15T01:56:02;3.73;;;2.10;;
7707;SDS011;3896;48.758;8.888;2023-04-15T01:58:28;3.07;;;2.20;;
7707;SDS011;3896;48.758;8.888;2023-04-15T02:00:54;5.33;;;1.73;;
7707;SDS011;3896;48.758;8.888;2023-04-15T02:03:19;2.77;;;2.03;;
7707;SDS011;3896;48.758;8.888;2023-04-15T02:05:45;2.83;;;2.30;;
7707;SDS011;3896;48.758;8.888;2023-04-15T02:08:11;2.80;;;2.10;;
7707;SDS011;3896;48.758;8.888;2023-04-15T02:10:37;3.40;;;2.40;;
7707;SDS011;3896;48.758;8.888;2023-04-15T02:13:02;3.00;;;2.13;;
7707;SDS011;3896;48.758;8.888;2023-04-15T02:15:28;2.13;;;1.93;;
7707;SDS011;3896;48.758;8.888;2023-04-15T02:17:54;1.93;;;1.80;;
7707;SDS011;3896;48.758;8.888;2023-04-15T02:20:20;3.00;;;2.30;;
7707;SDS011;3896;48.758;8.888;2023-04-15T02:22:46;3.80;;;2.57;;
7707;SDS011;3896;48.758;8.888;2023-04-15T02:25:12;3.27;;;2.10;;
7707;SDS011;3896;48.758;8.888;2023-04-15T02:27:38;3.20;;;2.30;;
7707;SDS011;3896;48.758;8.888;2023-04-15T02:30:04;4.37;;;2.20;;
7707;SDS011;3896;48.758;8.888;2023-04-15T02:32:31;3.00;;;2.00;;
7707;SDS011;3896;48.758;8.888;2023-04-15T02:35:01;4.57;;;2.10;;
7707;SDS011;3896;48.758;8.888;2023-04-15T02:37:27;3.03;;;2.43;;
7707;SDS011;3896;48.758;8.888;2023-04-15T02:39:54;5.17;;;2.13;;
7707;SDS011;3896;48.758;8.888;2023-04-15T02:42:20;4.70;;;2.03;;
7707;SDS011;3896;48.758;8.888;2023-04-15T02:44:45;2.63;;;2.23;;
7707;SDS011;3896;48.758;8.888;2023-04-15T02:47:11;3.30;;;2.27;;
7707;SDS011;3896;48.758;8.888;2023-04-15T02:49:37;3.97;;;2.37;;
7707;SDS011;3896;48.758;8.888;2023-04-15T02:52:02;5.53;;;2.20;;
7707;SDS011;3896;48.758;8.888;2023-04-15T02:54:28;2.77;;;2.10;;
7707;SDS011;3896;48.758;8.888;2023-04-15T02:56:54;4.93;;;2.30;;
7707;SDS011;3896;48.758;8.888;2023-04-15T02:59:20;2.30;;;2.10;;
7707;SDS011;3896;48.758;8.888;2023-04-15T03:01:46;3.47;;;1.93;;
7707;SDS011;3896;48.758;8.888;2023-04-15T03:04:11;2.73;;;1.90;;
7707;SDS011;3896;48.758;8.888;2023-04-15T03:06:38;2.50;;;2.30;;
7707;SDS011;3896;48.758;8.888;2023-04-15T03:09:03;2.77;;;2.30;;
7707;SDS011;3896;48.758;8.888;2023-04-15T03:11:29;3.30;;;2.30;;
7707;SDS011;3896;48.758;8.888;2023-04-15T03:13:55;4.10;;;2.20;;
7707;SDS011;3896;48.758;8.888;2023-04-15T03:16:21;3.13;;;1.90;;
7707;SDS011;3896;48.758;8.888;2023-04-15T03:18:46;3.30;;;2.10;;
7707;SDS011;3896;48.758;8.888;2023-04-15T03:21:12;3.47;;;1.90;;
7707;SDS011;3896;48.758;8.888;2023-04-15T03:23:37;3.07;;;2.10;;
7707;SDS011;3896;48.758;8.888;2023-04-15T03:26:03;3.90;;;1.93;;
7707;SDS011;3896;48.758;8.888;2023-04-15T03:28:29;3.50;;;2.30;;
7707;SDS011;3896;48.758;8.888;2023-04-15T03:30:55;2.40;;;1.87;;
7707;SDS011;3896;48.758;8.888;2023-04-15T03:33:21;2.37;;;2.17;;
7707;SDS011;3896;48.758;8.888;2023-04-15T03:35:46;3.30;;;1.93;;
7707;SDS011;3896;48.758;8.888;2023-04-15T03:38:12;1.87;;;1.70;;
7707;SDS011;3896;48.758;8.888;2023-04-15T03:40:39;2.30;;;2.10;;
7707;SDS011;3896;48.758;8.888;2023-04-15T03:43:05;3.60;;;2.37;;
7707;SDS011;3896;48.758;8.888;2023-04-15T03:45:31;4.47;;;2.60;;
7707;SDS011;3896;48.758;8.888;2023-04-15T03:47:56;5.27;;;2.30;;
7707;SDS011;3896;48.758;8.888;2023-04-15T03:50:22;3.27;;;2.20;;
7707;SDS011;3896;48.758;8.888;2023-04-15T03:52:47;3.37;;;1.90;;
7707;SDS011;3896;48.758;8.888;2023-04-15T03:55:13;2.17;;;2.00;;
7707;SDS011;3896;48.758;8.888;2023-04-15T03:57:39;3.20;;;2.03;;
7707;SDS011;3896;48.758;8.888;2023-04-15T04:00:05;1.63;;;1.53;;
7707;SDS011;3896;48.758;8.888;2023-04-15T04:02:33;2.50;;;2.30;;
7707;SDS011;3896;48.758;8.888;2023-04-15T04:04:59;3.73;;;2.17;;
7707;SDS011;3896;48.758;8.888;2023-04-15T04:07:25;5.57;;;1.90;;
7707;SDS011;3896;48.758;8.888;2023-04-15T04:09:50;5.40;;;2.27;;
7707;SDS011;3896;48.758;8.888;2023-04-15T04:12:16;4.00;;;2.77;;
7707;SDS011;3896;48.758;8.888;2023-04-15T04:14:41;2.90;;;2.27;;
7707;SDS011;3896;48.758;8.888;2023-04-15T04:17:07;3.03;;;2.53;;
7707;SDS011;3896;48.758;8.888;2023-04-15T04:19:32;2.10;;;2.00;;
7707;SDS011;3896;48.758;8.888;2023-04-15T04:21:58;2.37;;;2.17;;
7707;SDS011;3896;48.758;8.888;2023-04-15T04:24:24;4.87;;;2.73;;
7707;SDS011;3896;48.758;8.888;2023-04-15T04:26:49;2.60;;;1.80;;
7707;SDS011;3896;48.758;8.888;2023-04-15T04:29:15;4.27;;;1.97;;
7707;SDS011;3896;48.758;8.888;2023-04-15T04:31:40;3.57;;;2.33;;
7707;SDS011;3896;48.758;8.888;2023-04-15T04:34:06;4.10;;;2.00;;
7707;SDS011;3896;48.758;8.888;2023-04-15T04:36:32;2.87;;;2.00;;
7707;SDS011;3896;48.758;8.888;2023-04-15T04:38:57;2.53;;;2.20;;
7707;SDS011;3896;48.758;8.888;2023-04-15T04:41:23;4.17;;;1.97;;
7707;SDS011;3896;48.758;8.888;2023-04-15T04:43:48;2.93;;;2.00;;
7707;SDS011;3896;48.758;8.888;2023-04-15T04:46:14;3.77;;;2.87;;
7707;SDS011;3896;48.758;8.888;2023-04-15T04:48:39;2.20;;;1.90;;
7707;SDS011;3896;48.758;8.888;2023-04-15T04:51:05;4.60;;;2.43;;
7707;SDS011;3896;48.758;8.888;2023-04-15T04:53:32;6.23;;;1.70;;
7707;SDS011;3896;48.758;8.888;2023-04-15T04:55:57;3.13;;;2.07;;
7707;SDS011;3896;48.758;8.888;2023-04-15T04:58:23;3.73;;;1.97;;
7707;SDS011;3896;48.758;8.888;2023-04-15T05:00:49;3.93;;;2.10;;
7707;SDS011;3896;48.758;8.888;2023-04-15T05:03:15;3.67;;;1.80;;
7707;SDS011;3896;48.758;8.888;2023-04-15T05:05:40;3.23;;;2.17;;
7707;SDS011;3896;48.758;8.888;2023-04-15T05:08:06;5.70;;;2.80;;
7707;SDS011;3896;48.758;8.888;2023-04-15T05:10:31;2.93;;;2.57;;
7707;SDS011;3896;48.758;8.888;2023-04-15T05:12:57;3.23;;;2.13;;
7707;SDS011;3896;48.758;8.888;2023-04-15T05:15:23;2.27;;;2.07;;
7707;SDS011;3896;48.758;8.888;2023-04-15T05:17:50;2.67;;;2.37;;
7707;SDS011;3896;48.758;8.888;2023-04-15T05:20:15;4.03;;;2.10;;
7707;SDS011;3896;48.758;8.888;2023-04-15T05:22:41;2.60;;;2.10;;
7707;SDS011;3896;48.758;8.888;2023-04-15T05:25:07;2.83;;;2.50;;
7707;SDS011;3896;48.758;8.888;2023-04-15T05:27:33;3.30;;;1.93;;
7707;SDS011;3896;48.758;8.888;2023-04-15T05:29:59;3.10;;;2.27;;
7707;SDS011;3896;48.758;8.888;2023-04-15T05:32:25;4.13;;;2.10;;
7707;SDS011;3896;48.758;8.888;2023-04-15T05:34:51;2.97;;;1.83;;
7707;SDS011;3896;48.758;8.888;2023-04-15T05:37:16;4.87;;;2.27;;
7707;SDS011;3896;48.758;8.888;2023-04-15T05:39:44;3.30;;;1.80;;
7707;SDS011;3896;48.758;8.888;2023-04-15T05:42:10;2.43;;;1.67;;
7707;SDS011;3896;48.758;8.888;2023-04-15T05:44:36;2.00;;;1.90;;
7707;SDS011;3896;48.758;8.888;2023-04-15T05:47:01;2.53;;;2.10;;
7707;SDS011;3896;48.758;8.888;2023-04-15T05:49:27;3.13;;;2.17;;
7707;SDS011;3896;48.758;8.888;2023-04-15T05:51:53;2.17;;;2.03;;
7707;SDS011;3896;48.758;8.888;2023-04-15T05:54:18;3.77;;;2.57;;
7707;SDS011;3896;48.758;8.888;2023-04-15T05:56:45;2.93;;;2.60;;
7707;SDS011;3896;48.758;8.888;2023-04-15T05:59:11;3.30;;;2.30;;
7707;SDS011;3896;48.758;8.888;2023-04-15T06:01:37;4.43;;;2.80;;
7707;SDS011;3896;48.758;8.888;2023-04-15T06:04:02;2.70;;;2.50;;
7707;SDS011;3896;48.758;8.888;2023-04-15T06:06:28;4.00;;;3.37;;
7707;SDS011;3896;48.758;8.888;2023-04-15T06:08:53;2.80;;;2.60;;
7707;SDS011;3896;48.758;8.888;2023-04-15T06:11:19;2.90;;;2.47;;
7707;SDS011;3896;48.758;8.888;2023-04-15T06:13:46;3.43;;;2.47;;
7707;SDS011;3896;48.758;8.888;2023-04-15T06:16:11;15.63;;;3.53;;
7707;SDS011;3896;48.758;8.888;2023-04-15T06:18:37;7.80;;;2.97;;
7707;SDS011;3896;48.758;8.888;2023-04-15T06:21:03;9.60;;;2.93;;
7707;SDS011;3896;48.758;8.888;2023-04-15T06:23:28;4.80;;;2.57;;
7707;SDS011;3896;48.758;8.888;2023-04-15T06:25:54;6.87;;;3.77;;
7707;SDS011;3896;48.758;8.888;2023-04-15T06:28:20;6.77;;;4.43;;
7707;SDS011;3896;48.758;8.888;2023-04-15T06:30:45;6.90;;;3.70;;
7707;SDS011;3896;48.758;8.888;2023-04-15T06:33:11;6.10;;;3.10;;
7707;SDS011;3896;48.758;8.888;2023-04-15T06:35:37;4.33;;;3.53;;
7707;SDS011;3896;48.758;8.888;2023-04-15T06:38:03;4.33;;;3.33;;
7707;SDS011;3896;48.758;8.888;2023-04-15T06:40:29;6.00;;;3.30;;
7707;SDS011;3896;48.758;8.888;2023-04-15T06:42:55;5.53;;;3.50;;
7707;SDS011;3896;48.758;8.888;2023-04-15T06:45:20;7.57;;;4.43;;
7707;SDS011;3896;48.758;8.888;2023-04-15T06:47:46;6.20;;;3.50;;
7707;SDS011;3896;48.758;8.888;2023-04-15T06:50:11;8.27;;;4.10;;
7707;SDS011;3896;48.758;8.888;2023-04-15T06:52:37;6.97;;;3.93;;
7707;SDS011;3896;48.758;8.888;2023-04-15T06:55:03;6.23;;;3.70;;
7707;SDS011;3896;48.758;8.888;2023-04-15T06:57:29;4.53;;;3.37;;
7707;SDS011;3896;48.758;8.888;2023-04-15T06:59:55;6.27;;;3.23;;
7707;SDS011;3896;48.758;8.888;2023-04-15T07:02:20;3.20;;;2.93;;
7707;SDS011;3896;48.758;8.888;2023-04-15T07:04:46;5.87;;;3.97;;
7707;SDS011;3896;48.758;8.888;2023-04-15T07:07:12;4.47;;;3.40;;
7707;SDS011;3896;48.758;8.888;2023-04-15T07:09:39;3.53;;;3.07;;
7707;SDS011;3896;48.758;8.888;2023-04-15T07:12:04;4.73;;;3.23;;
7707;SDS011;3896;48.758;8.888;2023-04-15T07:14:30;4.83;;;3.50;;
7707;SDS011;3896;48.758;8.888;2023-04-15T07:16:55;7.57;;;4.60;;
7707;SDS011;3896;48.758;8.888;2023-04-15T07:19:21;8.53;;;3.33;;
7707;SDS011;3896;48.758;8.888;2023-04-15T07:21:47;3.17;;;2.83;;
7707;SDS011;3896;48.758;8.888;2023-04-15T07:24:13;6.13;;;3.30;;
7707;SDS011;3896;48.758;8.888;2023-04-15T07:26:42;5.10;;;3.20;;
7707;SDS011;3896;48.758;8.888;2023-04-15T07:29:08;5.97;;;3.80;;
7707;SDS011;3896;48.758;8.888;2023-04-15T07:31:34;7.10;;;3.20;;
7707;SDS011;3896;48.758;8.888;2023-04-15T07:34:01;6.53;;;3.23;;
7707;SDS011;3896;48.758;8.888;2023-04-15T07:36:27;4.20;;;3.03;;
7707;SDS011;3896;48.758;8.888;2023-04-15T07:38:53;5.60;;;3.20;;
7707;SDS011;3896;48.758;8.888;2023-04-15T07:41:19;7.83;;;2.80;;
7707;SDS011;3896;48.758;8.888;2023-04-15T07:43:45;4.50;;;3.20;;
7707;SDS011;3896;48.758;8.888;2023-04-15T07:46:12;5.33;;;3.00;;
7707;SDS011;3896;48.758;8.888;2023-04-15T07:48:38;8.20;;;3.03;;
7707;SDS011;3896;48.758;8.888;2023-04-15T07:51:05;3.40;;;3.10;;
7707;SDS011;3896;48.758;8.888;2023-04-15T07:53:30;3.90;;;3.00;;
7707;SDS011;3896;48.758;8.888;2023-04-15T07:55:57;3.60;;;2.67;;
7707;SDS011;3896;48.758;8.888;2023-04-15T07:58:23;5.67;;;2.87;;
7707;SDS011;3896;48.758;8.888;2023-04-15T08:00:48;5.50;;;3.30;;
7707;SDS011;3896;48.758;8.888;2023-04-15T08:03:14;4.53;;;2.83;;
7707;SDS011;3896;48.758;8.888;2023-04-15T08:05:40;4.43;;;2.40;;
7707;SDS011;3896;48.758;8.888;2023-04-15T08:08:06;3.00;;;2.23;;
7707;SDS011;3896;48.758;8.888;2023-04-15T08:10:32;5.53;;;3.03;;
7707;SDS011;3896;48.758;8.888;2023-04-15T08:12:57;4.20;;;2.17;;
7707;SDS011;3896;48.758;8.888;2023-04-15T08:15:23;3.43;;;2.67;;
7707;SDS011;3896;48.758;8.888;2023-04-15T08:17:49;4.77;;;2.50;;
7707;SDS011;3896;48.758;8.888;2023-04-15T08:20:15;3.93;;;1.97;;
7707;SDS011;3896;48.758;8.888;2023-04-15T08:22:40;2.87;;;2.53;;
7707;SDS011;3896;48.758;8.888;2023-04-15T08:25:06;6.30;;;2.60;;
7707;SDS011;3896;48.758;8.888;2023-04-15T08:27:33;3.33;;;2.83;;
7707;SDS011;3896;48.758;8.888;2023-04-15T08:29:58;5.30;;;2.47;;
7707;SDS011;3896;48.758;8.888;2023-04-15T08:32:24;6.03;;;2.37;;
7707;SDS011;3896;48.758;8.888;2023-04-15T08:34:51;7.57;;;2.00;;
7707;SDS011;3896;48.758;8.888;2023-04-15T08:37:17;2.97;;;2.10;;
7707;SDS011;3896;48.758;8.888;2023-04-15T08:39:43;4.93;;;2.03;;
7707;SDS011;3896;48.758;8.888;2023-04-15T08:42:15;5.07;;;2.50;;
7707;SDS011;3896;48.758;8.888;2023-04-15T08:44:41;3.27;;;1.97;;
7707;SDS011;3896;48.758;8.888;2023-04-15T08:47:08;3.20;;;2.10;;
7707;SDS011;3896;48.758;8.888;2023-04-15T08:49:38;3.37;;;2.17;;
7707;SDS011;3896;48.758;8.888;2023-04-15T08:52:05;3.17;;;1.93;;
7707;SDS011;3896;48.758;8.888;2023-04-15T08:54:31;6.90;;;2.13;;
7707;SDS011;3896;48.758;8.888;2023-04-15T08:56:59;2.63;;;1.77;;
7707;SDS011;3896;48.758;8.888;2023-04-15T08:59:26;4.23;;;1.80;;
7707;SDS011;3896;48.758;8.888;2023-04-15T09:01:53;4.97;;;1.63;;
7707;SDS011;3896;48.758;8.888;2023-04-15T09:04:19;3.57;;;1.90;;
7707;SDS011;3896;48.758;8.888;2023-04-15T09:06:45;5.97;;;1.50;;
7707;SDS011;3896;48.758;8.888;2023-04-15T09:09:11;3.03;;;2.00;;
7707;SDS011;3896;48.758;8.888;2023-04-15T09:11:38;1.50;;;1.40;;
7707;SDS011;3896;48.758;8.888;2023-04-15T09:14:04;2.60;;;1.37;;
7707;SDS011;3896;48.758;8.888;2023-04-15T09:16:29;4.33;;;1.60;;
7707;SDS011;3896;48.758;8.888;2023-04-15T09:18:55;4.83;;;1.47;;
7707;SDS011;3896;48.758;8.888;2023-04-15T09:21:21;2.10;;;1.90;;
7707;SDS011;3896;48.758;8.888;2023-04-15T09:23:57;4.00;;;1.47;;
7707;SDS011;3896;48.758;8.888;2023-04-15T09:26:33;1.97;;;1.70;;
7707;SDS011;3896;48.758;8.888;2023-04-15T09:29:03;2.03;;;1.40;;
7707;SDS011;3896;48.758;8.888;2023-04-15T09:31:30;1.47;;;1.37;;
7707;SDS011;3896;48.758;8.888;2023-04-15T09:33:57;3.23;;;1.50;;
7707;SDS011;3896;48.758;8.888;2023-04-15T09:36:22;3.07;;;1.30;;
7707;SDS011;3896;48.758;8.888;2023-04-15T09:38:55;2.53;;;1.03;;
7707;SDS011;3896;48.758;8.888;2023-04-15T09:41:22;4.03;;;1.23;;
7707;SDS011;3896;48.758;8.888;2023-04-15T09:43:49;3.27;;;1.50;;
7707;SDS011;3896;48.758;8.888;2023-04-15T09:46:15;2.27;;;1.50;;
7707;SDS011;3896;48.758;8.888;2023-04-15T09:48:40;3.23;;;1.20;;
7707;SDS011;3896;48.758;8.888;2023-04-15T09:51:06;3.67;;;1.70;;
7707;SDS011;3896;48.758;8.888;2023-04-15T09:53:32;1.63;;;1.43;;
7707;SDS011;3896;48.758;8.888;2023-04-15T09:56:00;1.67;;;1.57;;
7707;SDS011;3896;48.758;8.888;2023-04-15T09:58:27;4.13;;;1.97;;
7707;SDS011;3896;48.758;8.888;2023-04-15T10:00:58;4.83;;;1.87;;
7707;SDS011;3896;48.758;8.888;2023-04-15T10:03:26;4.00;;;1.90;;
7707;SDS011;3896;48.758;8.888;2023-04-15T10:05:59;4.10;;;1.80;;
7707;SDS011;3896;48.758;8.888;2023-04-15T10:08:26;3.40;;;1.40;;
7707;SDS011;3896;48.758;8.888;2023-04-15T10:10:54;2.97;;;1.10;;
7707;SDS011;3896;48.758;8.888;2023-04-15T10:13:20;4.00;;;2.03;;
7707;SDS011;3896;48.758;8.888;2023-04-15T10:15:50;3.83;;;1.47;;
7707;SDS011;3896;48.758;8.888;2023-04-15T10:18:22;4.77;;;1.60;;
7707;SDS011;3896;48.758;8.888;2023-04-15T10:20:50;2.67;;;1.70;;
7707;SDS011;3896;48.758;8.888;2023-04-15T10:23:16;2.43;;;1.13;;
7707;SDS011;3896;48.758;8.888;2023-04-15T10:25:43;2.23;;;1.20;;
7707;SDS011;3896;48.758;8.888;2023-04-15T10:28:10;3.10;;;1.67;;
7707;SDS011;3896;48.758;8.888;2023-04-15T10:30:36;4.07;;;1.47;;
7707;SDS011;3896;48.758;8.888;2023-04-15T10:33:02;1.90;;;1.50;;
7707;SDS011;3896;48.758;8.888;2023-04-15T10:35:29;6.20;;;1.70;;
7707;SDS011;3896;48.758;8.888;2023-04-15T10:37:56;1.73;;;1.30;;
7707;SDS011;3896;48.758;8.888;2023-04-15T10:42:52;2.87;;;1.37;;
7707;SDS011;3896;48.758;8.888;2023-04-15T10:45:35;3.93;;;1.80;;
7707;SDS011;3896;48.758;8.888;2023-04-15T10:48:02;1.73;;;1.63;;
7707;SDS011;3896;48.758;8.888;2023-04-15T10:50:30;5.33;;;1.37;;
7707;SDS011;3896;48.758;8.888;2023-04-15T10:52:57;3.77;;;1.37;;
7707;SDS011;3896;48.758;8.888;2023-04-15T10:55:23;4.03;;;2.47;;
7707;SDS011;3896;48.758;8.888;2023-04-15T10:57:59;1.33;;;1.23;;
7707;SDS011;3896;48.758;8.888;2023-04-15T11:00:30;3.10;;;1.97;;
7707;SDS011;3896;48.758;8.888;2023-04-15T11:02:57;3.90;;;2.07;;
7707;SDS011;3896;48.758;8.888;2023-04-15T11:08:07;2.97;;;1.93;;
7707;SDS011;3896;48.758;8.888;2023-04-15T11:13:00;2.70;;;2.23;;
7707;SDS011;3896;48.758;8.888;2023-04-15T11:15:33;4.63;;;3.30;;
7707;SDS011;3896;48.758;8.888;2023-04-15T11:18:08;4.17;;;2.27;;
7707;SDS011;3896;48.758;8.888;2023-04-15T11:20:37;3.70;;;2.00;;
7707;SDS011;3896;48.758;8.888;2023-04-15T11:23:04;2.40;;;2.20;;
7707;SDS011;3896;48.758;8.888;2023-04-15T11:25:31;4.53;;;2.07;;
7707;SDS011;3896;48.758;8.888;2023-04-15T11:28:00;2.93;;;2.60;;
7707;SDS011;3896;48.758;8.888;2023-04-15T11:30:27;3.77;;;2.13;;
7707;SDS011;3896;48.758;8.888;2023-04-15T11:32:56;4.77;;;3.00;;
7707;SDS011;3896;48.758;8.888;2023-04-15T11:35:23;3.17;;;2.50;;
7707;SDS011;3896;48.758;8.888;2023-04-15T11:37:49;6.83;;;2.87;;
7707;SDS011;3896;48.758;8.888;2023-04-15T11:40:15;3.63;;;2.43;;
7707;SDS011;3896;48.758;8.888;2023-04-15T11:42:46;3.17;;;2.00;;
7707;SDS011;3896;48.758;8.888;2023-04-15T11:45:27;3.83;;;2.33;;
7707;SDS011;3896;48.758;8.888;2023-04-15T11:47:53;3.13;;;2.20;;
7707;SDS011;3896;48.758;8.888;2023-04-15T11:50:22;2.80;;;1.80;;
7707;SDS011;3896;48.758;8.888;2023-04-15T11:52:54;5.03;;;2.60;;
7707;SDS011;3896;48.758;8.888;2023-04-15T11:55:21;4.47;;;2.50;;
7707;SDS011;3896;48.758;8.888;2023-04-15T11:57:48;5.13;;;3.10;;
7707;SDS011;3896;48.758;8.888;2023-04-15T12:00:15;4.87;;;2.37;;
7707;SDS011;3896;48.758;8.888;2023-04-15T12:02:41;7.57;;;2.70;;
7707;SDS011;3896;48.758;8.888;2023-04-15T12:05:07;5.87;;;3.10;;
7707;SDS011;3896;48.758;8.888;2023-04-15T12:07:56;2.97;;;2.53;;
7707;SDS011;3896;48.758;8.888;2023-04-15T12:10:25;3.10;;;2.70;;
7707;SDS011;3896;48.758;8.888;2023-04-15T12:12:51;4.93;;;2.80;;
7707;SDS011;3896;48.758;8.888;2023-04-15T12:15:20;3.33;;;2.80;;
7707;SDS011;3896;48.758;8.888;2023-04-15T12:17:52;4.17;;;3.30;;
7707;SDS011;3896;48.758;8.888;2023-04-15T12:20:24;4.23;;;3.37;;
7707;SDS011;3896;48.758;8.888;2023-04-15T12:22:50;3.93;;;3.03;;
7707;SDS011;3896;48.758;8.888;2023-04-15T12:25:16;3.43;;;3.00;;
7707;SDS011;3896;48.758;8.888;2023-04-15T12:27:41;4.20;;;3.10;;
7707;SDS011;3896;48.758;8.888;2023-04-15T12:30:15;4.37;;;2.77;;
7707;SDS011;3896;48.758;8.888;2023-04-15T12:32:41;4.13;;;3.10;;
7707;SDS011;3896;48.758;8.888;2023-04-15T12:35:08;3.40;;;3.10;;
7707;SDS011;3896;48.758;8.888;2023-04-15T12:37:33;5.57;;;2.80;;
7707;SDS011;3896;48.758;8.888;2023-04-15T12:39:59;4.77;;;3.33;;
7707;SDS011;3896;48.758;8.888;2023-04-15T12:42:24;4.57;;;2.77;;
7707;SDS011;3896;48.758;8.888;2023-04-15T12:44:50;5.93;;;3.07;;
7707;SDS011;3896;48.758;8.888;2023-04-15T12:47:16;5.37;;;3.20;;
7707;SDS011;3896;48.758;8.888;2023-04-15T12:49:41;7.47;;;2.77;;
7707;SDS011;3896;48.758;8.888;2023-04-15T12:52:07;5.17;;;2.80;;
7707;SDS011;3896;48.758;8.888;2023-04-15T12:54:32;5.07;;;3.03;;
7707;SDS011;3896;48.758;8.888;2023-04-15T12:56:59;4.93;;;3.50;;
7707;SDS011;3896;48.758;8.888;2023-04-15T12:59:27;4.07;;;2.90;;
7707;SDS011;3896;48.758;8.888;2023-04-15T13:01:52;4.50;;;2.40;;
7707;SDS011;3896;48.758;8.888;2023-04-15T13:04:18;3.80;;;2.40;;
7707;SDS011;3896;48.758;8.888;2023-04-15T13:06:45;3.97;;;2.33;;
7707;SDS011;3896;48.758;8.888;2023-04-15T13:09:10;2.97;;;2.67;;
7707;SDS011;3896;48.758;8.888;2023-04-15T13:11:36;6.97;;;3.00;;
7707;SDS011;3896;48.758;8.888;2023-04-15T13:14:02;3.17;;;2.67;;
7707;SDS011;3896;48.758;8.888;2023-04-15T13:16:29;4.37;;;2.50;;
7707;SDS011;3896;48.758;8.888;2023-04-15T13:18:56;3.17;;;2.60;;
7707;SDS011;3896;48.758;8.888;2023-04-15T13:21:23;4.23;;;3.00;;
7707;SDS011;3896;48.758;8.888;2023-04-15T13:23:49;3.37;;;3.10;;
7707;SDS011;3896;48.758;8.888;2023-04-15T13:26:16;5.60;;;3.20;;
7707;SDS011;3896;48.758;8.888;2023-04-15T13:28:42;4.13;;;3.10;;
7707;SDS011;3896;48.758;8.888;2023-04-15T13:31:07;5.40;;;3.30;;
7707;SDS011;3896;48.758;8.888;2023-04-15T13:33:33;5.30;;;3.60;;
7707;SDS011;3896;48.758;8.888;2023-04-15T13:35:58;6.13;;;3.57;;
7707;SDS011;3896;48.758;8.888;2023-04-15T13:38:24;7.80;;;3.73;;
7707;SDS011;3896;48.758;8.888;2023-04-15T13:40:50;5.73;;;3.33;;
7707;SDS011;3896;48.758;8.888;2023-04-15T13:43:15;4.40;;;3.17;;
7707;SDS011;3896;48.758;8.888;2023-04-15T13:45:41;5.20;;;2.80;;
7707;SDS011;3896;48.758;8.888;2023-04-15T13:48:07;2.63;;;2.40;;
7707;SDS011;3896;48.758;8.888;2023-04-15T13:50:33;3.00;;;2.70;;
7707;SDS011;3896;48.758;8.888;2023-04-15T13:52:58;3.33;;;2.43;;
7707;SDS011;3896;48.758;8.888;2023-04-15T13:55:24;3.03;;;2.10;;
7707;SDS011;3896;48.758;8.888;2023-04-15T13:57:50;5.13;;;2.13;;
7707;SDS011;3896;48.758;8.888;2023-04-15T14:00:16;2.30;;;2.07;;
7707;SDS011;3896;48.758;8.888;2023-04-15T14:02:41;2.57;;;1.73;;
7707;SDS011;3896;48.758;8.888;2023-04-15T14:05:07;2.77;;;1.80;;
7707;SDS011;3896;48.758;8.888;2023-04-15T14:07:33;2.23;;;2.00;;
7707;SDS011;3896;48.758;8.888;2023-04-15T14:09:59;2.60;;;2.10;;
7707;SDS011;3896;48.758;8.888;2023-04-15T14:12:25;3.40;;;1.90;;
7707;SDS011;3896;48.758;8.888;2023-04-15T14:14:50;3.33;;;1.83;;
7707;SDS011;3896;48.758;8.888;2023-04-15T14:17:16;2.70;;;2.23;;
7707;SDS011;3896;48.758;8.888;2023-04-15T14:19:41;1.93;;;1.80;;
7707;SDS011;3896;48.758;8.888;2023-04-15T14:22:07;2.33;;;1.60;;
7707;SDS011;3896;48.758;8.888;2023-04-15T14:24:32;4.13;;;2.00;;
7707;SDS011;3896;48.758;8.888;2023-04-15T14:26:58;3.20;;;2.27;;
7707;SDS011;3896;48.758;8.888;2023-04-15T14:29:24;2.33;;;1.67;;
7707;SDS011;3896;48.758;8.888;2023-04-15T14:31:49;3.97;;;2.60;;
7707;SDS011;3896;48.758;8.888;2023-04-15T14:34:15;2.00;;;1.80;;
7707;SDS011;3896;48.758;8.888;2023-04-15T14:36:41;3.47;;;1.90;;
7707;SDS011;3896;48.758;8.888;2023-04-15T14:39:07;2.37;;;2.07;;
7707;SDS011;3896;48.758;8.888;2023-04-15T14:41:33;3.17;;;2.30;;
7707;SDS011;3896;48.758;8.888;2023-04-15T14:43:59;4.87;;;2.17;;
7707;SDS011;3896;48.758;8.888;2023-04-15T14:46:25;3.97;;;1.90;;
7707;SDS011;3896;48.758;8.888;2023-04-15T14:48:50;7.63;;;4.63;;
7707;SDS011;3896;48.758;8.888;2023-04-15T14:51:16;5.37;;;3.80;;
7707;SDS011;3896;48.758;8.888;2023-04-15T14:53:42;4.47;;;2.97;;
7707;SDS011;3896;48.758;8.888;2023-04-15T14:56:08;5.73;;;2.40;;
7707;SDS011;3896;48.758;8.888;2023-04-15T14:58:33;2.53;;;2.33;;
7707;SDS011;3896;48.758;8.888;2023-04-15T15:00:59;3.67;;;2.27;;
7707;SDS011;3896;48.758;8.888;2023-04-15T15:03:26;5.40;;;2.63;;
7707;SDS011;3896;48.758;8.888;2023-04-15T15:05:52;2.40;;;2.20;;
7707;SDS011;3896;48.758;8.888;2023-04-15T15:08:18;2.63;;;2.43;;
7707;SDS011;3896;48.758;8.888;2023-04-15T15:10:43;2.00;;;1.90;;
7707;SDS011;3896;48.758;8.888;2023-04-15T15:13:09;2.80;;;2.30;;
7707;SDS011;3896;48.758;8.888;2023-04-15T15:15:36;2.63;;;2.03;;
7707;SDS011;3896;48.758;8.888;2023-04-15T15:18:02;2.83;;;2.00;;